createdAt,value
2024-02-02T00:01:27.204Z,67.00
2024-02-02T00:03:55.427Z,68.10
2024-02-02T00:06:24.257Z,67.20
2024-02-02T00:08:52.434Z,69.50
2024-02-02T00:11:20.739Z,69.70
2024-02-02T00:13:49.591Z,67.40
2024-02-02T00:16:17.670Z,76.50
2024-02-02T00:18:46.166Z,70.50
2024-02-02T00:21:14.173Z,63.30
2024-02-02T00:23:42.275Z,67.70
2024-02-02T00:26:10.235Z,64.50
2024-02-02T00:28:38.134Z,70.20
2024-02-02T00:31:06.120Z,68.40
2024-02-02T00:33:34.303Z,66.60
2024-02-02T00:38:32.307Z,64.60
2024-02-02T00:41:00.362Z,66.10
2024-02-02T00:43:28.822Z,58.90
2024-02-02T00:45:56.754Z,58.40
2024-02-02T00:48:25.106Z,63.00
2024-02-02T00:50:53.161Z,59.70
2024-02-02T00:53:21.083Z,64.10
2024-02-02T00:55:49.074Z,58.10
2024-02-02T00:58:17.295Z,61.90
2024-02-02T01:00:45.367Z,56.50
2024-02-02T01:03:13.520Z,58.40
2024-02-02T01:05:41.775Z,54.30
2024-02-02T01:08:10.033Z,60.80
2024-02-02T01:10:38.102Z,61.50
2024-02-02T01:13:06.934Z,57.20
2024-02-02T01:15:36.088Z,55.50
2024-02-02T01:18:08.684Z,57.70
2024-02-02T01:20:36.876Z,59.80
2024-02-02T01:23:04.961Z,63.80
2024-02-02T01:25:33.537Z,57.60
2024-02-02T01:28:01.766Z,59.40
2024-02-02T01:30:31.265Z,59.70
2024-02-02T01:32:59.539Z,51.30
2024-02-02T01:35:27.878Z,56.70
2024-02-02T01:37:56.021Z,58.70
2024-02-02T01:40:24.271Z,49.40
2024-02-02T01:42:52.448Z,53.90
2024-02-02T01:47:48.462Z,57.60
2024-02-02T01:50:16.560Z,56.40
2024-02-02T01:52:44.564Z,51.70
2024-02-02T01:55:13.136Z,49.60
2024-02-02T01:57:41.368Z,49.30
2024-02-02T02:02:38.379Z,42.30
2024-02-02T02:05:06.998Z,58.00
2024-02-02T02:07:35.075Z,60.80
2024-02-02T02:10:05.063Z,54.50
2024-02-02T02:12:33.173Z,56.90
2024-02-02T02:15:01.425Z,57.20
2024-02-02T02:17:29.752Z,55.90
2024-02-02T02:19:59.995Z,39.20
2024-02-02T02:22:28.347Z,42.00
2024-02-02T02:24:56.269Z,56.70
2024-02-02T02:27:24.296Z,58.00
2024-02-02T02:29:52.201Z,60.40
2024-02-02T02:32:20.349Z,57.50
2024-02-02T02:34:48.397Z,52.70
2024-02-02T02:37:17.456Z,55.90
2024-02-02T02:39:45.853Z,55.10
2024-02-02T02:42:14.150Z,57.30
2024-02-02T02:44:43.146Z,58.80
2024-02-02T02:47:12.447Z,58.80
2024-02-02T02:49:41.057Z,57.70
2024-02-02T02:52:09.375Z,57.20
2024-02-02T02:54:37.378Z,56.10
2024-02-02T02:57:06.013Z,59.60
2024-02-02T02:59:34.262Z,53.70
2024-02-02T03:02:02.569Z,51.50
2024-02-02T03:04:30.529Z,59.00
2024-02-02T03:06:59.207Z,55.70
2024-02-02T03:09:27.323Z,51.20
2024-02-02T03:11:55.907Z,56.30
2024-02-02T03:14:24.130Z,54.50
2024-02-02T03:16:52.283Z,55.80
2024-02-02T03:19:20.575Z,53.60
2024-02-02T03:21:48.731Z,52.40
2024-02-02T03:24:17.069Z,50.70
2024-02-02T03:29:13.105Z,49.70
2024-02-02T03:31:41.222Z,54.80
2024-02-02T03:34:09.241Z,47.10
2024-02-02T03:36:37.538Z,50.80
2024-02-02T03:39:05.544Z,42.20
2024-02-02T03:41:33.425Z,48.60
2024-02-02T03:44:01.516Z,44.40
2024-02-02T03:46:29.654Z,45.00
2024-02-02T03:48:59.128Z,42.90
2024-02-02T03:51:27.295Z,40.90
2024-02-02T03:53:55.659Z,44.10
2024-02-02T03:56:23.820Z,45.80
2024-02-02T03:58:51.972Z,45.00
2024-02-02T04:03:49.051Z,41.10
2024-02-02T04:06:17.659Z,40.40
2024-02-02T04:11:13.669Z,39.20
2024-02-02T04:13:43.549Z,39.20
2024-02-02T04:16:11.862Z,36.10
2024-02-02T04:18:39.912Z,36.90
2024-02-02T04:21:08.080Z,37.30
2024-02-02T04:23:36.385Z,35.30
2024-02-02T04:26:04.643Z,34.60
2024-02-02T04:28:32.749Z,35.60
2024-02-02T04:31:01.119Z,31.90
2024-02-02T04:33:29.372Z,34.00
2024-02-02T04:35:57.790Z,31.70
2024-02-02T04:38:25.944Z,31.20
2024-02-02T04:40:54.242Z,31.80
2024-02-02T04:43:22.337Z,26.40
2024-02-02T04:45:50.349Z,28.00
2024-02-02T04:48:18.412Z,28.30
2024-02-02T04:53:17.118Z,23.60
2024-02-02T04:55:45.063Z,25.90
2024-02-02T04:58:13.276Z,24.70
2024-02-02T05:03:09.692Z,21.60
2024-02-02T05:05:38.969Z,24.00
2024-02-02T05:08:07.782Z,22.30
2024-02-02T05:10:35.740Z,17.60
2024-02-02T05:13:03.947Z,16.30
2024-02-02T05:15:32.169Z,13.50
2024-02-02T05:20:29.329Z,10.90
2024-02-02T05:22:57.512Z,10.50
2024-02-02T05:25:25.431Z,12.90
2024-02-02T05:27:53.716Z,10.50
2024-02-02T05:30:22.045Z,12.80
2024-02-02T05:32:51.679Z,10.60
2024-02-02T05:35:19.686Z,10.20
2024-02-02T05:37:48.765Z,10.70
2024-02-02T05:40:16.708Z,9.60
2024-02-02T05:42:46.762Z,7.90
2024-02-02T05:45:14.878Z,11.90
2024-02-02T05:47:43.256Z,9.30
2024-02-02T05:50:11.347Z,11.70
2024-02-02T05:52:40.722Z,10.50
2024-02-02T05:55:09.425Z,14.20
2024-02-02T05:57:37.642Z,10.00
2024-02-02T06:00:07.094Z,10.80
2024-02-02T06:02:35.056Z,10.60
2024-02-02T06:05:04.908Z,11.70
2024-02-02T06:07:32.871Z,11.50
2024-02-02T06:10:01.153Z,13.80
2024-02-02T06:12:29.399Z,12.00
2024-02-02T06:14:58.932Z,13.70
2024-02-02T06:17:27.884Z,11.50
2024-02-02T06:19:56.436Z,13.10
2024-02-02T06:22:25.124Z,8.40
2024-02-02T06:24:53.874Z,13.70
2024-02-02T06:27:24.127Z,14.40
2024-02-02T06:29:53.421Z,14.20
2024-02-02T06:32:23.572Z,15.70
2024-02-02T06:34:57.149Z,17.40
2024-02-02T06:37:26.290Z,15.50
2024-02-02T06:39:56.219Z,14.60
2024-02-02T06:42:27.791Z,14.70
2024-02-02T06:44:58.341Z,15.20
2024-02-02T06:47:26.968Z,20.20
2024-02-02T06:49:55.336Z,17.50
2024-02-02T06:52:23.658Z,20.40
2024-02-02T06:54:51.891Z,21.30
2024-02-02T06:57:21.463Z,24.10
2024-02-02T06:59:51.241Z,24.50
2024-02-02T07:02:22.340Z,25.20
2024-02-02T07:04:50.511Z,22.90
2024-02-02T07:07:19.045Z,21.70
2024-02-02T07:09:57.357Z,24.40
2024-02-02T07:12:37.599Z,22.80
2024-02-02T07:15:07.773Z,24.70
2024-02-02T07:17:38.762Z,21.90
2024-02-02T07:20:27.336Z,21.30
2024-02-02T07:22:58.149Z,21.40
2024-02-02T07:25:27.854Z,22.60
2024-02-02T07:28:01.937Z,20.60
2024-02-02T07:30:46.116Z,17.00
2024-02-02T07:33:26.748Z,15.40
2024-02-02T07:35:58.922Z,18.70
2024-02-02T07:38:35.806Z,16.90
2024-02-02T07:41:13.213Z,17.50
2024-02-02T07:43:41.913Z,17.50
2024-02-02T07:46:14.351Z,13.60
2024-02-02T07:48:48.423Z,16.10
2024-02-02T07:51:19.893Z,14.80
2024-02-02T07:53:53.517Z,14.80
2024-02-02T07:56:25.221Z,17.20
2024-02-02T07:58:53.384Z,15.10
2024-02-02T08:01:21.552Z,16.30
2024-02-02T08:03:49.651Z,12.70
2024-02-02T08:06:18.163Z,13.50
2024-02-02T08:08:46.311Z,14.30
2024-02-02T08:13:43.330Z,12.00
2024-02-02T08:16:11.523Z,11.10
2024-02-02T08:18:40.065Z,14.60
2024-02-02T08:21:09.295Z,15.50
2024-02-02T08:23:39.067Z,17.20
2024-02-02T08:26:08.074Z,32.60
2024-02-02T08:28:45.375Z,25.70
2024-02-02T08:31:20.799Z,15.70
2024-02-02T08:33:49.407Z,16.30
2024-02-02T08:36:19.679Z,13.30
2024-02-02T08:38:48.183Z,13.10
2024-02-02T08:41:17.523Z,15.00
2024-02-02T08:43:48.417Z,13.50
2024-02-02T08:46:20.747Z,14.20
2024-02-02T08:48:51.451Z,16.80
2024-02-02T08:51:39.355Z,13.70
2024-02-02T08:54:47.050Z,13.90
2024-02-02T08:57:27.799Z,14.90
2024-02-02T08:59:56.898Z,7.50
2024-02-02T09:02:36.862Z,6.30
2024-02-02T09:05:20.109Z,9.60
2024-02-02T09:07:54.295Z,10.40
2024-02-02T09:11:00.241Z,9.60
2024-02-02T09:13:33.650Z,9.20
2024-02-02T09:16:01.814Z,8.90
2024-02-02T09:18:37.576Z,9.40
2024-02-02T09:21:08.789Z,7.30
2024-02-02T09:23:37.757Z,6.20
2024-02-02T09:26:16.726Z,6.40
2024-02-02T09:28:47.005Z,7.20
2024-02-02T09:31:22.181Z,9.60
2024-02-02T09:33:54.955Z,8.00
2024-02-02T09:36:30.538Z,9.20
2024-02-02T09:39:03.417Z,8.90
2024-02-02T09:42:02.575Z,6.50
2024-02-02T09:45:12.895Z,6.10
2024-02-02T09:48:14.668Z,4.60
2024-02-02T09:50:56.785Z,7.10
2024-02-02T09:53:50.178Z,9.00
2024-02-02T09:56:26.913Z,6.90
2024-02-02T09:58:59.520Z,8.30
2024-02-02T10:01:30.649Z,9.10
2024-02-02T10:04:09.861Z,7.10
2024-02-02T10:06:55.995Z,7.60
2024-02-02T10:09:43.356Z,6.40
2024-02-02T10:12:30.001Z,7.60
2024-02-02T10:15:37.120Z,3.20
2024-02-02T10:18:22.254Z,7.20
2024-02-02T10:20:56.585Z,7.10
2024-02-02T10:23:30.721Z,7.40
2024-02-02T10:26:32.489Z,6.70
2024-02-02T10:29:30.011Z,6.80
2024-02-02T10:32:18.489Z,6.00
2024-02-02T10:35:23.734Z,6.40
2024-02-02T10:37:55.855Z,6.80
2024-02-02T10:40:44.274Z,7.90
2024-02-02T10:43:34.437Z,8.50
2024-02-02T10:46:41.653Z,6.50
2024-02-02T10:49:31.580Z,4.80
2024-02-02T10:52:24.264Z,5.10
2024-02-02T10:54:53.728Z,4.60
2024-02-02T10:57:28.076Z,6.00
2024-02-02T11:00:38.205Z,6.10
2024-02-02T11:03:16.975Z,4.60
2024-02-02T11:06:19.422Z,8.60
2024-02-02T11:08:57.843Z,5.40
2024-02-02T11:11:28.562Z,8.20
2024-02-02T11:14:13.039Z,9.60
2024-02-02T11:16:43.996Z,7.90
2024-02-02T11:19:18.332Z,6.80
2024-02-02T11:21:46.468Z,6.30
2024-02-02T11:24:36.435Z,5.70
2024-02-02T11:27:15.741Z,5.00
2024-02-02T11:30:08.588Z,6.10
2024-02-02T11:33:02.540Z,7.00
2024-02-02T11:36:04.991Z,8.50
2024-02-02T11:38:46.629Z,8.40
2024-02-02T11:41:23.055Z,10.30
2024-02-02T11:43:53.624Z,7.30
2024-02-02T11:46:27.721Z,8.60
2024-02-02T11:49:08.612Z,7.00
2024-02-02T11:51:38.936Z,8.70
2024-02-02T11:54:19.810Z,6.50
2024-02-02T11:56:52.595Z,6.60
2024-02-02T11:59:33.401Z,5.40
2024-02-02T12:02:14.620Z,5.50
2024-02-02T12:05:05.033Z,4.60
2024-02-02T12:07:44.546Z,6.50
2024-02-02T12:10:18.003Z,6.90
2024-02-02T12:13:03.893Z,6.00
2024-02-02T12:15:35.021Z,6.90
2024-02-02T12:18:04.422Z,6.40
2024-02-02T12:20:52.695Z,8.10
2024-02-02T12:23:22.890Z,7.10
2024-02-02T12:25:52.800Z,7.00
2024-02-02T12:28:20.879Z,7.60
2024-02-02T12:30:49.139Z,6.30
2024-02-02T12:38:24.120Z,6.90
2024-02-02T12:40:52.363Z,9.70
2024-02-02T12:43:25.748Z,7.90
2024-02-02T12:45:58.455Z,8.60
2024-02-02T12:48:26.843Z,6.70
2024-02-02T12:50:55.299Z,8.90
2024-02-02T12:53:23.375Z,7.70
2024-02-02T12:58:25.692Z,7.90
2024-02-02T13:00:54.213Z,10.50
2024-02-02T13:03:25.906Z,9.20
2024-02-02T13:05:57.547Z,7.80
2024-02-02T13:08:39.438Z,9.50
2024-02-02T13:11:19.419Z,8.60
2024-02-02T13:13:47.779Z,8.80
2024-02-02T13:19:00.120Z,6.70
2024-02-02T13:21:28.684Z,6.20
2024-02-02T13:23:58.183Z,11.10
2024-02-02T13:26:40.112Z,5.30
2024-02-02T13:29:11.262Z,11.00
2024-02-02T13:31:42.172Z,5.40
2024-02-02T13:34:15.931Z,7.80
2024-02-02T13:36:45.756Z,6.70
2024-02-02T13:39:20.534Z,7.00
2024-02-02T13:41:49.287Z,5.90
2024-02-02T13:44:24.018Z,7.00
2024-02-02T13:46:52.476Z,6.40
2024-02-02T13:51:54.085Z,5.20
2024-02-02T13:54:23.572Z,6.40
2024-02-02T13:56:52.696Z,8.40
2024-02-02T13:59:22.485Z,9.00
2024-02-02T14:01:53.320Z,9.40
2024-02-02T14:04:27.056Z,6.80
2024-02-02T14:06:55.685Z,9.40
2024-02-02T14:09:24.397Z,8.50
2024-02-02T14:12:02.468Z,11.90
2024-02-02T14:14:31.092Z,7.80
2024-02-02T14:19:32.494Z,8.20
2024-02-02T14:22:09.266Z,6.80
2024-02-02T14:24:50.188Z,8.60
2024-02-02T14:27:18.338Z,7.70
2024-02-02T14:29:46.833Z,6.80
2024-02-02T14:32:14.880Z,5.00
2024-02-02T14:34:43.522Z,5.80
2024-02-02T14:37:16.022Z,8.50
2024-02-02T14:39:44.112Z,7.40
2024-02-02T14:42:12.315Z,8.70
2024-02-02T14:47:13.396Z,7.50
2024-02-02T14:49:42.608Z,7.70
2024-02-02T14:52:14.446Z,7.80
2024-02-02T14:54:42.405Z,8.80
2024-02-02T14:57:10.984Z,8.40
2024-02-02T14:59:43.266Z,8.40
2024-02-02T15:02:14.227Z,8.90
2024-02-02T15:04:42.350Z,8.50
2024-02-02T15:07:11.216Z,8.90
2024-02-02T15:09:40.866Z,7.90
2024-02-02T15:12:09.893Z,8.10
2024-02-02T15:14:38.490Z,8.50
2024-02-02T15:17:06.655Z,6.60
2024-02-02T15:19:34.894Z,7.50
2024-02-02T15:22:03.731Z,7.70
2024-02-02T15:24:33.184Z,7.90
2024-02-02T15:27:03.956Z,8.10
2024-02-02T15:29:33.620Z,6.70
2024-02-02T15:32:02.648Z,5.80
2024-02-02T15:34:31.053Z,7.80
2024-02-02T15:37:02.170Z,6.30
2024-02-02T15:39:37.482Z,5.20
2024-02-02T15:42:08.415Z,4.10
2024-02-02T15:44:36.688Z,6.60
2024-02-02T15:47:05.501Z,7.30
2024-02-02T15:49:33.870Z,6.70
2024-02-02T15:52:04.484Z,9.70
2024-02-02T15:54:36.216Z,9.20
2024-02-02T15:57:06.063Z,6.50
2024-02-02T15:59:34.080Z,5.50
2024-02-02T16:02:05.773Z,7.10
2024-02-02T16:04:33.890Z,9.20
2024-02-02T16:07:05.611Z,6.40
2024-02-02T16:09:41.548Z,9.80
2024-02-02T16:12:13.118Z,6.90
2024-02-02T16:14:52.304Z,8.40
2024-02-02T16:19:50.026Z,10.10
2024-02-02T16:22:20.627Z,10.80
2024-02-02T16:24:48.711Z,8.50
2024-02-02T16:27:17.140Z,9.10
2024-02-02T16:32:13.343Z,7.80
2024-02-02T16:34:43.530Z,5.40
2024-02-02T16:37:11.568Z,8.80
2024-02-02T16:39:43.582Z,7.80
2024-02-02T16:42:14.328Z,9.00
2024-02-02T16:44:45.541Z,9.30
2024-02-02T16:47:14.574Z,7.80
2024-02-02T16:49:48.114Z,9.40
2024-02-02T16:52:16.479Z,10.00
2024-02-02T16:54:46.080Z,11.60
2024-02-02T16:57:14.627Z,11.70
2024-02-02T16:59:44.027Z,11.00
2024-02-02T17:02:12.741Z,16.50
2024-02-02T17:04:43.804Z,17.80
2024-02-02T17:07:12.373Z,17.30
2024-02-02T17:09:45.854Z,17.80
2024-02-02T17:12:16.602Z,20.60
2024-02-02T17:14:45.186Z,16.00
2024-02-02T17:19:44.450Z,16.00
2024-02-02T17:22:12.950Z,15.10
2024-02-02T17:24:42.314Z,16.20
2024-02-02T17:27:11.157Z,12.80
2024-02-02T17:29:43.360Z,13.30
2024-02-02T17:32:16.238Z,12.60
2024-02-02T17:34:49.260Z,13.20
2024-02-02T17:37:17.679Z,13.40
2024-02-02T17:39:46.977Z,13.50
2024-02-02T17:42:15.903Z,11.30
2024-02-02T17:44:44.466Z,13.00
2024-02-02T17:47:12.813Z,11.90
2024-02-02T17:49:46.002Z,11.00
2024-02-02T17:52:26.439Z,12.70
2024-02-02T17:54:55.516Z,12.40
2024-02-02T17:57:24.802Z,12.80
2024-02-02T17:59:53.684Z,13.60
2024-02-02T18:02:23.001Z,13.80
2024-02-02T18:04:51.986Z,13.20
2024-02-02T18:07:30.282Z,12.20
2024-02-02T18:10:04.902Z,10.80
2024-02-02T18:12:39.091Z,11.60
2024-02-02T18:15:09.115Z,12.60
2024-02-02T18:17:38.323Z,10.60
2024-02-02T18:20:08.671Z,13.50
2024-02-02T18:22:37.046Z,13.70
2024-02-02T18:27:34.127Z,15.10
2024-02-02T18:30:02.455Z,14.60
2024-02-02T18:32:30.869Z,11.90
2024-02-02T18:34:59.882Z,12.80
2024-02-02T18:37:30.954Z,14.60
2024-02-02T18:39:59.482Z,14.40
2024-02-02T18:42:27.558Z,12.60
2024-02-02T18:44:55.762Z,15.00
2024-02-02T18:47:23.793Z,16.80
2024-02-02T18:49:53.637Z,17.90
2024-02-02T18:52:22.085Z,14.00
2024-02-02T18:54:50.385Z,20.10
2024-02-02T18:57:19.250Z,15.50
2024-02-02T18:59:47.418Z,12.10
2024-02-02T19:02:15.498Z,17.70
2024-02-02T19:04:45.074Z,16.00
2024-02-02T19:07:14.783Z,15.90
2024-02-02T19:09:42.962Z,17.10
2024-02-02T19:12:11.339Z,19.50
2024-02-02T19:14:39.455Z,18.40
2024-02-02T19:17:07.313Z,17.30
2024-02-02T19:19:35.541Z,17.90
2024-02-02T19:22:04.437Z,17.30
2024-02-02T19:24:32.480Z,15.30
2024-02-02T19:27:00.497Z,19.40
2024-02-02T19:29:28.962Z,18.60
2024-02-02T19:31:59.717Z,17.20
2024-02-02T19:34:30.486Z,15.90
2024-02-02T19:37:02.275Z,16.90
2024-02-02T19:39:32.611Z,16.50
2024-02-02T19:42:02.013Z,19.50
2024-02-02T19:44:30.110Z,14.80
2024-02-02T19:46:58.513Z,14.10
2024-02-02T19:51:55.988Z,14.60
2024-02-02T19:54:26.574Z,15.10
2024-02-02T19:56:54.566Z,17.40
2024-02-02T19:59:23.076Z,14.00
2024-02-02T20:01:51.107Z,16.20
2024-02-02T20:04:19.186Z,17.00
2024-02-02T20:06:47.953Z,17.40
2024-02-02T20:11:45.727Z,12.80
2024-02-02T20:14:14.132Z,13.00
2024-02-02T20:16:43.163Z,15.20
2024-02-02T20:19:11.649Z,13.80
2024-02-02T20:21:39.715Z,16.00
2024-02-02T20:24:08.923Z,15.20
2024-02-02T20:26:37.087Z,18.90
2024-02-02T20:29:05.031Z,20.50
2024-02-02T20:31:34.232Z,15.80
2024-02-02T20:34:02.758Z,16.80
2024-02-02T20:36:32.373Z,16.70
2024-02-02T20:39:00.635Z,19.20
2024-02-02T20:41:29.186Z,13.80
2024-02-02T20:43:59.055Z,16.90
2024-02-02T20:46:27.517Z,15.90
2024-02-02T20:48:56.013Z,20.30
2024-02-02T20:51:24.161Z,17.60
2024-02-02T20:53:52.289Z,17.10
2024-02-02T20:56:20.446Z,13.50
2024-02-02T20:58:48.534Z,14.30
2024-02-02T21:01:16.659Z,19.20
2024-02-02T21:03:45.510Z,19.40
2024-02-02T21:06:14.377Z,11.70
2024-02-02T21:08:45.898Z,16.00
2024-02-02T21:11:13.942Z,20.70
2024-02-02T21:13:41.874Z,15.80
2024-02-02T21:16:10.020Z,16.60
2024-02-02T21:18:38.347Z,16.30
2024-02-02T21:23:35.766Z,21.00
2024-02-02T21:26:03.983Z,13.10
2024-02-02T21:28:31.894Z,16.40
2024-02-02T21:31:00.632Z,14.50
2024-02-02T21:33:28.906Z,18.20
2024-02-02T21:38:27.935Z,16.60
2024-02-02T21:40:55.951Z,17.40
2024-02-02T21:43:24.044Z,19.10
2024-02-02T21:45:52.362Z,19.60
2024-02-02T21:48:23.443Z,15.80
2024-02-02T21:50:53.360Z,21.30
2024-02-02T21:53:21.643Z,25.00
2024-02-02T21:55:49.460Z,18.70
2024-02-02T21:58:17.668Z,20.00
2024-02-02T22:00:47.295Z,17.50
2024-02-02T22:03:15.521Z,20.60
2024-02-02T22:05:43.771Z,18.80
2024-02-02T22:08:12.552Z,18.90
2024-02-02T22:10:40.695Z,20.40
2024-02-02T22:15:39.167Z,18.60
2024-02-02T22:18:11.198Z,21.10
2024-02-02T22:20:46.085Z,18.40
2024-02-02T22:23:15.414Z,19.10
2024-02-02T22:25:43.779Z,17.80
2024-02-02T22:28:12.190Z,14.50
2024-02-02T22:30:41.525Z,15.60
2024-02-02T22:33:10.107Z,15.30
2024-02-02T22:35:38.068Z,14.10
2024-02-02T22:38:06.173Z,17.60
2024-02-02T22:40:34.325Z,15.40
2024-02-02T22:45:30.635Z,14.30
2024-02-02T22:47:58.837Z,16.40
2024-02-02T22:50:27.036Z,14.60
2024-02-02T22:52:56.071Z,13.30
2024-02-02T22:55:24.378Z,17.90
2024-02-02T23:00:22.693Z,15.60
2024-02-02T23:02:50.777Z,15.60
2024-02-02T23:05:19.010Z,19.30
2024-02-02T23:07:48.237Z,18.60
2024-02-02T23:10:16.832Z,16.70
2024-02-02T23:12:46.464Z,13.90
2024-02-02T23:15:14.687Z,16.40
2024-02-02T23:17:42.816Z,16.00
2024-02-02T23:20:11.449Z,16.00
2024-02-02T23:22:39.540Z,16.90
2024-02-02T23:25:08.432Z,20.60
2024-02-02T23:27:38.022Z,15.70
2024-02-02T23:30:07.123Z,18.40
2024-02-02T23:32:35.497Z,17.60
2024-02-02T23:35:04.083Z,17.00
2024-02-02T23:37:32.181Z,17.80
2024-02-02T23:40:02.030Z,18.90
2024-02-02T23:42:31.221Z,16.50
2024-02-02T23:44:59.351Z,15.00
2024-02-02T23:47:28.903Z,15.70
2024-02-02T23:49:57.076Z,15.10
2024-02-02T23:52:25.527Z,15.80
2024-02-02T23:54:54.444Z,15.20
2024-02-02T23:57:25.962Z,15.90
2024-02-02T23:59:54.375Z,16.60
